sensor_id;sensor_type;location;lat;lon;timestamp;temperature;humidity
54124;DHT22;55741;53.252;5.788;2023-03-03T00:02:09;2.30;99.90
54124;DHT22;55741;53.252;5.788;2023-03-03T00:04:35;2.30;99.90
54124;DHT22;55741;53.252;5.788;2023-03-03T00:07:01;2.30;99.90
54124;DHT22;55741;53.252;5.788;2023-03-03T00:09:26;2.30;99.90
54124;DHT22;55741;53.252;5.788;2023-03-03T00:11:58;2.30;99.90
54124;DHT22;55741;53.252;5.788;2023-03-03T00:14:29;2.30;99.90
54124;DHT22;55741;53.252;5.788;2023-03-03T00:16:56;2.30;99.90
54124;DHT22;55741;53.252;5.788;2023-03-03T00:19:22;2.20;99.90
54124;DHT22;55741;53.252;5.788;2023-03-03T00:21:50;2.20;99.90
54124;DHT22;55741;53.252;5.788;2023-03-03T00:24:24;2.20;99.90
54124;DHT22;55741;53.252;5.788;2023-03-03T00:27:01;2.20;99.90
54124;DHT22;55741;53.252;5.788;2023-03-03T00:29:37;2.10;99.90
54124;DHT22;55741;53.252;5.788;2023-03-03T00:34:41;2.10;99.90
54124;DHT22;55741;53.252;5.788;2023-03-03T00:37:32;2.10;99.90
54124;DHT22;55741;53.252;5.788;2023-03-03T00:40:14;2.10;99.90
54124;DHT22;55741;53.252;5.788;2023-03-03T00:42:50;2.10;99.90
54124;DHT22;55741;53.252;5.788;2023-03-03T00:47:47;2.10;99.90
54124;DHT22;55741;53.252;5.788;2023-03-03T00:50:29;2.10;99.90
54124;DHT22;55741;53.252;5.788;2023-03-03T00:53:05;2.10;99.90
54124;DHT22;55741;53.252;5.788;2023-03-03T00:55:32;2.10;99.90
54124;DHT22;55741;53.252;5.788;2023-03-03T00:57:58;2.10;99.90
54124;DHT22;55741;53.252;5.788;2023-03-03T01:00:25;2.10;99.90
54124;DHT22;55741;53.252;5.788;2023-03-03T01:02:51;2.20;99.90
54124;DHT22;55741;53.252;5.788;2023-03-03T01:05:18;2.10;99.90
54124;DHT22;55741;53.252;5.788;2023-03-03T01:07:44;2.10;99.90
54124;DHT22;55741;53.252;5.788;2023-03-03T01:10:10;2.10;99.90
54124;DHT22;55741;53.252;5.788;2023-03-03T01:12:36;2.10;99.90
54124;DHT22;55741;53.252;5.788;2023-03-03T01:15:05;2.10;99.90
54124;DHT22;55741;53.252;5.788;2023-03-03T01:17:31;2.10;99.90
54124;DHT22;55741;53.252;5.788;2023-03-03T01:19:59;2.10;99.90
54124;DHT22;55741;53.252;5.788;2023-03-03T01:22:25;2.10;99.90
54124;DHT22;55741;53.252;5.788;2023-03-03T01:24:51;2.20;99.90
54124;DHT22;55741;53.252;5.788;2023-03-03T01:27:17;2.20;99.90
54124;DHT22;55741;53.252;5.788;2023-03-03T01:29:46;2.20;99.90
54124;DHT22;55741;53.252;5.788;2023-03-03T01:32:13;2.10;99.90
54124;DHT22;55741;53.252;5.788;2023-03-03T01:34:50;2.10;99.90
54124;DHT22;55741;53.252;5.788;2023-03-03T01:37:16;2.20;99.90
54124;DHT22;55741;53.252;5.788;2023-03-03T01:39:47;2.10;99.90
54124;DHT22;55741;53.252;5.788;2023-03-03T01:42:13;2.10;99.90
54124;DHT22;55741;53.252;5.788;2023-03-03T01:44:40;2.10;99.90
54124;DHT22;55741;53.252;5.788;2023-03-03T01:47:23;2.10;99.90
54124;DHT22;55741;53.252;5.788;2023-03-03T01:49:58;2.10;99.90
54124;DHT22;55741;53.252;5.788;2023-03-03T01:52:34;2.10;99.90
54124;DHT22;55741;53.252;5.788;2023-03-03T01:55:07;2.10;99.90
54124;DHT22;55741;53.252;5.788;2023-03-03T01:57:39;2.10;99.90
54124;DHT22;55741;53.252;5.788;2023-03-03T02:00:08;2.00;99.90
54124;DHT22;55741;53.252;5.788;2023-03-03T02:02:35;2.00;99.90
54124;DHT22;55741;53.252;5.788;2023-03-03T02:05:09;2.10;99.90
54124;DHT22;55741;53.252;5.788;2023-03-03T02:07:38;2.10;99.90
54124;DHT22;55741;53.252;5.788;2023-03-03T02:12:39;2.00;99.90
54124;DHT22;55741;53.252;5.788;2023-03-03T02:17:43;1.90;99.90
54124;DHT22;55741;53.252;5.788;2023-03-03T02:23:12;1.90;99.90
54124;DHT22;55741;53.252;5.788;2023-03-03T02:28:25;1.90;99.90
54124;DHT22;55741;53.252;5.788;2023-03-03T02:30:54;1.80;99.90
54124;DHT22;55741;53.252;5.788;2023-03-03T02:33:27;1.80;99.90
54124;DHT22;55741;53.252;5.788;2023-03-03T02:35:53;1.80;99.90
54124;DHT22;55741;53.252;5.788;2023-03-03T02:44:12;1.70;99.90
54124;DHT22;55741;53.252;5.788;2023-03-03T02:46:43;1.70;99.90
54124;DHT22;55741;53.252;5.788;2023-03-03T02:49:12;1.70;99.90
54124;DHT22;55741;53.252;5.788;2023-03-03T02:51:38;1.70;99.90
54124;DHT22;55741;53.252;5.788;2023-03-03T02:54:05;1.70;99.90
54124;DHT22;55741;53.252;5.788;2023-03-03T02:56:32;1.70;99.90
54124;DHT22;55741;53.252;5.788;2023-03-03T02:58:58;1.60;99.90
54124;DHT22;55741;53.252;5.788;2023-03-03T03:01:25;1.70;99.90
54124;DHT22;55741;53.252;5.788;2023-03-03T03:03:53;1.70;99.90
54124;DHT22;55741;53.252;5.788;2023-03-03T03:06:19;1.70;99.90
54124;DHT22;55741;53.252;5.788;2023-03-03T03:08:49;1.70;99.90
54124;DHT22;55741;53.252;5.788;2023-03-03T03:11:15;1.70;99.90
54124;DHT22;55741;53.252;5.788;2023-03-03T03:13:41;1.70;99.90
54124;DHT22;55741;53.252;5.788;2023-03-03T03:16:07;1.70;99.90
54124;DHT22;55741;53.252;5.788;2023-03-03T03:18:33;1.60;99.90
54124;DHT22;55741;53.252;5.788;2023-03-03T03:21:09;1.70;99.90
54124;DHT22;55741;53.252;5.788;2023-03-03T03:23:37;1.70;99.90
54124;DHT22;55741;53.252;5.788;2023-03-03T03:26:03;1.70;99.90
54124;DHT22;55741;53.252;5.788;2023-03-03T03:28:29;1.70;99.90
54124;DHT22;55741;53.252;5.788;2023-03-03T03:31:00;1.70;99.90
54124;DHT22;55741;53.252;5.788;2023-03-03T03:33:26;1.70;99.90
54124;DHT22;55741;53.252;5.788;2023-03-03T03:35:53;1.60;99.90
54124;DHT22;55741;53.252;5.788;2023-03-03T03:38:21;1.60;99.90
54124;DHT22;55741;53.252;5.788;2023-03-03T03:40:48;1.60;99.90
54124;DHT22;55741;53.252;5.788;2023-03-03T03:43:14;1.60;99.90
54124;DHT22;55741;53.252;5.788;2023-03-03T03:45:43;1.60;99.90
54124;DHT22;55741;53.252;5.788;2023-03-03T03:48:10;1.60;99.90
54124;DHT22;55741;53.252;5.788;2023-03-03T03:50:37;1.60;99.90
54124;DHT22;55741;53.252;5.788;2023-03-03T03:53:04;1.60;99.90
54124;DHT22;55741;53.252;5.788;2023-03-03T03:55:31;1.50;99.90
54124;DHT22;55741;53.252;5.788;2023-03-03T03:57:57;1.60;99.90
54124;DHT22;55741;53.252;5.788;2023-03-03T04:00:23;1.50;99.90
54124;DHT22;55741;53.252;5.788;2023-03-03T04:02:51;1.40;99.90
54124;DHT22;55741;53.252;5.788;2023-03-03T04:05:17;1.40;99.90
54124;DHT22;55741;53.252;5.788;2023-03-03T04:07:43;1.50;99.90
54124;DHT22;55741;53.252;5.788;2023-03-03T04:10:10;1.50;99.90
54124;DHT22;55741;53.252;5.788;2023-03-03T04:12:36;1.50;99.90
54124;DHT22;55741;53.252;5.788;2023-03-03T04:15:07;1.50;99.90
54124;DHT22;55741;53.252;5.788;2023-03-03T04:17:33;1.50;99.90
54124;DHT22;55741;53.252;5.788;2023-03-03T04:19:59;1.50;99.90
54124;DHT22;55741;53.252;5.788;2023-03-03T04:22:25;1.50;99.90
54124;DHT22;55741;53.252;5.788;2023-03-03T04:24:51;1.50;99.90
54124;DHT22;55741;53.252;5.788;2023-03-03T04:27:17;1.50;99.90
54124;DHT22;55741;53.252;5.788;2023-03-03T04:29:43;1.50;99.90
54124;DHT22;55741;53.252;5.788;2023-03-03T04:32:15;1.40;99.90
54124;DHT22;55741;53.252;5.788;2023-03-03T04:34:43;1.50;99.90
54124;DHT22;55741;53.252;5.788;2023-03-03T04:37:09;1.40;99.90
54124;DHT22;55741;53.252;5.788;2023-03-03T04:39:35;1.40;99.90
54124;DHT22;55741;53.252;5.788;2023-03-03T04:42:01;1.40;99.90
54124;DHT22;55741;53.252;5.788;2023-03-03T04:44:27;1.30;99.90
54124;DHT22;55741;53.252;5.788;2023-03-03T04:46:59;1.20;99.90
54124;DHT22;55741;53.252;5.788;2023-03-03T04:49:25;1.30;99.90
54124;DHT22;55741;53.252;5.788;2023-03-03T04:51:52;1.30;99.90
54124;DHT22;55741;53.252;5.788;2023-03-03T04:54:18;1.20;99.90
54124;DHT22;55741;53.252;5.788;2023-03-03T04:56:44;1.20;99.90
54124;DHT22;55741;53.252;5.788;2023-03-03T04:59:10;1.20;99.90
54124;DHT22;55741;53.252;5.788;2023-03-03T05:01:40;1.20;99.90
54124;DHT22;55741;53.252;5.788;2023-03-03T05:04:07;1.10;99.90
54124;DHT22;55741;53.252;5.788;2023-03-03T05:06:32;1.20;99.90
54124;DHT22;55741;53.252;5.788;2023-03-03T05:08:59;1.20;99.90
54124;DHT22;55741;53.252;5.788;2023-03-03T05:11:25;1.10;99.90
54124;DHT22;55741;53.252;5.788;2023-03-03T05:13:50;1.20;99.90
54124;DHT22;55741;53.252;5.788;2023-03-03T05:16:17;1.20;99.90
54124;DHT22;55741;53.252;5.788;2023-03-03T05:18:43;1.20;99.90
54124;DHT22;55741;53.252;5.788;2023-03-03T05:21:10;1.20;99.90
54124;DHT22;55741;53.252;5.788;2023-03-03T05:23:36;1.20;99.90
54124;DHT22;55741;53.252;5.788;2023-03-03T05:26:02;1.20;99.90
54124;DHT22;55741;53.252;5.788;2023-03-03T05:28:28;1.20;99.90
54124;DHT22;55741;53.252;5.788;2023-03-03T05:30:54;1.10;99.90
54124;DHT22;55741;53.252;5.788;2023-03-03T05:33:21;1.10;99.90
54124;DHT22;55741;53.252;5.788;2023-03-03T05:35:56;1.10;99.90
54124;DHT22;55741;53.252;5.788;2023-03-03T05:38:23;1.10;99.90
54124;DHT22;55741;53.252;5.788;2023-03-03T05:40:49;1.00;99.90
54124;DHT22;55741;53.252;5.788;2023-03-03T05:43:15;1.10;99.90
54124;DHT22;55741;53.252;5.788;2023-03-03T05:45:41;1.00;99.90
54124;DHT22;55741;53.252;5.788;2023-03-03T05:48:07;1.00;99.90
54124;DHT22;55741;53.252;5.788;2023-03-03T05:50:36;1.00;99.90
54124;DHT22;55741;53.252;5.788;2023-03-03T05:53:02;0.90;99.90
54124;DHT22;55741;53.252;5.788;2023-03-03T05:55:29;1.00;99.90
54124;DHT22;55741;53.252;5.788;2023-03-03T05:57:55;0.90;99.90
54124;DHT22;55741;53.252;5.788;2023-03-03T06:00:29;0.90;99.90
54124;DHT22;55741;53.252;5.788;2023-03-03T06:03:15;0.80;99.90
54124;DHT22;55741;53.252;5.788;2023-03-03T06:05:41;0.90;99.90
54124;DHT22;55741;53.252;5.788;2023-03-03T06:08:07;0.80;99.90
54124;DHT22;55741;53.252;5.788;2023-03-03T06:10:34;0.80;99.90
54124;DHT22;55741;53.252;5.788;2023-03-03T06:13:00;0.80;99.90
54124;DHT22;55741;53.252;5.788;2023-03-03T06:15:26;0.80;99.90
54124;DHT22;55741;53.252;5.788;2023-03-03T06:17:52;0.70;99.90
54124;DHT22;55741;53.252;5.788;2023-03-03T06:20:18;0.80;99.90
54124;DHT22;55741;53.252;5.788;2023-03-03T06:22:44;0.80;99.90
54124;DHT22;55741;53.252;5.788;2023-03-03T06:25:13;0.80;99.90
54124;DHT22;55741;53.252;5.788;2023-03-03T06:27:39;0.80;99.90
54124;DHT22;55741;53.252;5.788;2023-03-03T06:30:07;0.80;99.90
54124;DHT22;55741;53.252;5.788;2023-03-03T06:32:33;0.80;99.90
54124;DHT22;55741;53.252;5.788;2023-03-03T06:35:03;0.70;99.90
54124;DHT22;55741;53.252;5.788;2023-03-03T06:37:29;0.80;99.90
54124;DHT22;55741;53.252;5.788;2023-03-03T06:39:55;0.80;99.90
54124;DHT22;55741;53.252;5.788;2023-03-03T06:42:21;0.70;99.90
54124;DHT22;55741;53.252;5.788;2023-03-03T06:44:49;0.80;99.90
54124;DHT22;55741;53.252;5.788;2023-03-03T06:47:15;0.80;99.90
54124;DHT22;55741;53.252;5.788;2023-03-03T06:49:42;0.70;99.90
54124;DHT22;55741;53.252;5.788;2023-03-03T06:52:18;0.80;99.90
54124;DHT22;55741;53.252;5.788;2023-03-03T06:54:44;0.80;99.90
54124;DHT22;55741;53.252;5.788;2023-03-03T06:57:32;0.80;99.90
54124;DHT22;55741;53.252;5.788;2023-03-03T07:00:22;0.80;99.90
54124;DHT22;55741;53.252;5.788;2023-03-03T07:02:57;0.90;99.90
54124;DHT22;55741;53.252;5.788;2023-03-03T07:05:25;0.90;99.90
54124;DHT22;55741;53.252;5.788;2023-03-03T07:07:55;0.90;99.90
54124;DHT22;55741;53.252;5.788;2023-03-03T07:10:28;1.00;99.90
54124;DHT22;55741;53.252;5.788;2023-03-03T07:12:58;1.00;99.90
54124;DHT22;55741;53.252;5.788;2023-03-03T07:15:33;1.10;99.90
54124;DHT22;55741;53.252;5.788;2023-03-03T07:18:00;1.10;99.90
54124;DHT22;55741;53.252;5.788;2023-03-03T07:20:35;1.20;99.90
54124;DHT22;55741;53.252;5.788;2023-03-03T07:25:47;1.40;99.90
54124;DHT22;55741;53.252;5.788;2023-03-03T07:28:28;1.50;99.90
54124;DHT22;55741;53.252;5.788;2023-03-03T07:30:56;1.50;99.90
54124;DHT22;55741;53.252;5.788;2023-03-03T07:33:33;1.60;99.90
54124;DHT22;55741;53.252;5.788;2023-03-03T07:36:02;1.60;99.90
54124;DHT22;55741;53.252;5.788;2023-03-03T07:38:47;1.70;99.90
54124;DHT22;55741;53.252;5.788;2023-03-03T07:41:17;1.90;99.90
54124;DHT22;55741;53.252;5.788;2023-03-03T07:46:35;1.90;99.90
54124;DHT22;55741;53.252;5.788;2023-03-03T07:49:33;2.00;99.90
54124;DHT22;55741;53.252;5.788;2023-03-03T07:52:00;2.20;99.90
54124;DHT22;55741;53.252;5.788;2023-03-03T07:54:39;2.50;99.90
54124;DHT22;55741;53.252;5.788;2023-03-03T08:02:39;3.00;99.90
54124;DHT22;55741;53.252;5.788;2023-03-03T08:10:35;3.40;99.90
54124;DHT22;55741;53.252;5.788;2023-03-03T08:13:18;3.40;99.90
54124;DHT22;55741;53.252;5.788;2023-03-03T08:15:45;3.50;99.90
54124;DHT22;55741;53.252;5.788;2023-03-03T08:18:24;3.50;99.90
54124;DHT22;55741;53.252;5.788;2023-03-03T08:21:00;3.60;99.90
54124;DHT22;55741;53.252;5.788;2023-03-03T08:23:27;3.70;99.90
54124;DHT22;55741;53.252;5.788;2023-03-03T08:25:53;3.80;99.90
54124;DHT22;55741;53.252;5.788;2023-03-03T08:28:20;3.90;99.90
54124;DHT22;55741;53.252;5.788;2023-03-03T08:30:47;4.00;99.90
54124;DHT22;55741;53.252;5.788;2023-03-03T08:33:13;4.00;99.90
54124;DHT22;55741;53.252;5.788;2023-03-03T08:35:40;4.10;99.90
54124;DHT22;55741;53.252;5.788;2023-03-03T08:38:08;4.10;99.90
54124;DHT22;55741;53.252;5.788;2023-03-03T08:40:41;4.20;99.90
54124;DHT22;55741;53.252;5.788;2023-03-03T08:43:11;4.30;99.90
54124;DHT22;55741;53.252;5.788;2023-03-03T08:45:45;4.30;99.90
54124;DHT22;55741;53.252;5.788;2023-03-03T08:48:12;4.40;99.90
54124;DHT22;55741;53.252;5.788;2023-03-03T08:50:39;4.40;99.90
54124;DHT22;55741;53.252;5.788;2023-03-03T08:53:05;4.50;99.90
54124;DHT22;55741;53.252;5.788;2023-03-03T08:55:35;4.50;99.90
54124;DHT22;55741;53.252;5.788;2023-03-03T08:58:00;4.60;99.90
54124;DHT22;55741;53.252;5.788;2023-03-03T09:00:26;4.70;99.90
54124;DHT22;55741;53.252;5.788;2023-03-03T09:02:53;4.70;99.90
54124;DHT22;55741;53.252;5.788;2023-03-03T09:05:20;4.70;99.90
54124;DHT22;55741;53.252;5.788;2023-03-03T09:07:47;4.80;99.90
54124;DHT22;55741;53.252;5.788;2023-03-03T09:10:18;4.90;99.90
54124;DHT22;55741;53.252;5.788;2023-03-03T09:12:46;4.90;99.90
54124;DHT22;55741;53.252;5.788;2023-03-03T09:15:17;5.00;99.90
54124;DHT22;55741;53.252;5.788;2023-03-03T09:17:44;5.10;99.90
54124;DHT22;55741;53.252;5.788;2023-03-03T09:22:49;5.20;99.90
54124;DHT22;55741;53.252;5.788;2023-03-03T09:25:34;5.30;99.90
54124;DHT22;55741;53.252;5.788;2023-03-03T09:28:01;5.30;99.90
54124;DHT22;55741;53.252;5.788;2023-03-03T09:30:48;5.40;99.90
54124;DHT22;55741;53.252;5.788;2023-03-03T09:38:51;5.60;99.90
54124;DHT22;55741;53.252;5.788;2023-03-03T09:44:56;5.70;99.90
54124;DHT22;55741;53.252;5.788;2023-03-03T09:50:00;5.80;99.90
54124;DHT22;55741;53.252;5.788;2023-03-03T09:52:55;5.90;99.90
54124;DHT22;55741;53.252;5.788;2023-03-03T09:55:49;5.90;99.90
54124;DHT22;55741;53.252;5.788;2023-03-03T10:15:29;6.20;99.90
54124;DHT22;55741;53.252;5.788;2023-03-03T10:18:12;6.30;99.90
54124;DHT22;55741;53.252;5.788;2023-03-03T10:26:13;6.40;99.90
54124;DHT22;55741;53.252;5.788;2023-03-03T10:29:08;6.50;99.90
54124;DHT22;55741;53.252;5.788;2023-03-03T10:32:42;6.50;99.90
54124;DHT22;55741;53.252;5.788;2023-03-03T10:44:43;6.90;99.90
54124;DHT22;55741;53.252;5.788;2023-03-03T10:49:55;7.10;99.90
54124;DHT22;55741;53.252;5.788;2023-03-03T11:00:26;7.40;99.90
54124;DHT22;55741;53.252;5.788;2023-03-03T11:06:00;7.70;99.90
54124;DHT22;55741;53.252;5.788;2023-03-03T11:08:45;7.80;99.90
54124;DHT22;55741;53.252;5.788;2023-03-03T11:11:33;7.80;99.90
54124;DHT22;55741;53.252;5.788;2023-03-03T11:25:07;7.90;99.90
54124;DHT22;55741;53.252;5.788;2023-03-03T11:33:21;7.90;99.90
54124;DHT22;55741;53.252;5.788;2023-03-03T11:36:04;7.80;99.90
54124;DHT22;55741;53.252;5.788;2023-03-03T11:38:47;7.80;99.90
54124;DHT22;55741;53.252;5.788;2023-03-03T11:41:40;7.90;99.90
54124;DHT22;55741;53.252;5.788;2023-03-03T11:47:29;8.00;99.90
54124;DHT22;55741;53.252;5.788;2023-03-03T11:50:02;8.00;99.90
54124;DHT22;55741;53.252;5.788;2023-03-03T11:52:51;8.00;99.90
54124;DHT22;55741;53.252;5.788;2023-03-03T11:55:38;8.00;99.90
54124;DHT22;55741;53.252;5.788;2023-03-03T11:58:30;8.10;99.90
54124;DHT22;55741;53.252;5.788;2023-03-03T12:01:13;8.20;99.90
54124;DHT22;55741;53.252;5.788;2023-03-03T12:14:05;8.90;99.90
54124;DHT22;55741;53.252;5.788;2023-03-03T12:16:54;9.00;99.90
54124;DHT22;55741;53.252;5.788;2023-03-03T12:19:50;9.00;99.90
54124;DHT22;55741;53.252;5.788;2023-03-03T12:22:30;9.00;99.90
54124;DHT22;55741;53.252;5.788;2023-03-03T12:27:58;8.70;99.90
54124;DHT22;55741;53.252;5.788;2023-03-03T12:30:48;8.70;99.90
54124;DHT22;55741;53.252;5.788;2023-03-03T12:38:45;8.40;99.90
54124;DHT22;55741;53.252;5.788;2023-03-03T12:46:40;8.40;99.90
54124;DHT22;55741;53.252;5.788;2023-03-03T12:49:09;8.40;99.90
54124;DHT22;55741;53.252;5.788;2023-03-03T12:57:21;8.30;99.90
54124;DHT22;55741;53.252;5.788;2023-03-03T13:08:23;8.30;99.90
54124;DHT22;55741;53.252;5.788;2023-03-03T13:17:01;8.60;99.90
54124;DHT22;55741;53.252;5.788;2023-03-03T13:19:41;8.60;99.90
54124;DHT22;55741;53.252;5.788;2023-03-03T13:27:37;8.40;99.90
54124;DHT22;55741;53.252;5.788;2023-03-03T13:30:15;8.30;99.90
54124;DHT22;55741;53.252;5.788;2023-03-03T13:33:09;8.30;99.90
54124;DHT22;55741;53.252;5.788;2023-03-03T13:35:56;8.30;99.90
54124;DHT22;55741;53.252;5.788;2023-03-03T13:38:48;8.20;99.90
54124;DHT22;55741;53.252;5.788;2023-03-03T13:41:42;8.20;99.90
54124;DHT22;55741;53.252;5.788;2023-03-03T13:44:16;8.20;99.90
54124;DHT22;55741;53.252;5.788;2023-03-03T13:47:09;8.10;99.90
54124;DHT22;55741;53.252;5.788;2023-03-03T13:52:30;8.10;99.90
54124;DHT22;55741;53.252;5.788;2023-03-03T13:57:59;8.00;99.90
54124;DHT22;55741;53.252;5.788;2023-03-03T14:00:34;8.00;99.90
54124;DHT22;55741;53.252;5.788;2023-03-03T14:03:17;8.00;99.90
54124;DHT22;55741;53.252;5.788;2023-03-03T14:06:35;8.00;99.90
54124;DHT22;55741;53.252;5.788;2023-03-03T14:11:35;7.90;99.90
54124;DHT22;55741;53.252;5.788;2023-03-03T14:14:38;7.90;99.90
54124;DHT22;55741;53.252;5.788;2023-03-03T14:19:59;7.80;99.90
54124;DHT22;55741;53.252;5.788;2023-03-03T14:22:54;7.80;99.90
54124;DHT22;55741;53.252;5.788;2023-03-03T14:25:21;7.80;99.90
54124;DHT22;55741;53.252;5.788;2023-03-03T14:30:43;7.70;99.90
54124;DHT22;55741;53.252;5.788;2023-03-03T14:38:44;7.70;99.90
54124;DHT22;55741;53.252;5.788;2023-03-03T14:43:38;7.70;99.90
54124;DHT22;55741;53.252;5.788;2023-03-03T14:46:30;7.70;99.90
54124;DHT22;55741;53.252;5.788;2023-03-03T14:48:59;7.70;99.90
54124;DHT22;55741;53.252;5.788;2023-03-03T14:54:20;7.70;99.90
54124;DHT22;55741;53.252;5.788;2023-03-03T15:00:31;7.60;99.90
54124;DHT22;55741;53.252;5.788;2023-03-03T15:05:59;7.60;99.90
54124;DHT22;55741;53.252;5.788;2023-03-03T15:08:34;7.60;99.90
54124;DHT22;55741;53.252;5.788;2023-03-03T15:11:19;7.60;99.90
54124;DHT22;55741;53.252;5.788;2023-03-03T15:13:45;7.60;99.90
54124;DHT22;55741;53.252;5.788;2023-03-03T15:16:18;7.60;99.90
54124;DHT22;55741;53.252;5.788;2023-03-03T15:22:06;7.60;99.90
54124;DHT22;55741;53.252;5.788;2023-03-03T15:30:40;7.50;99.90
54124;DHT22;55741;53.252;5.788;2023-03-03T15:33:37;7.50;99.90
54124;DHT22;55741;53.252;5.788;2023-03-03T15:39:20;7.50;99.90
54124;DHT22;55741;53.252;5.788;2023-03-03T15:44:55;7.40;99.90
54124;DHT22;55741;53.252;5.788;2023-03-03T15:48:05;7.40;99.90
54124;DHT22;55741;53.252;5.788;2023-03-03T15:57:03;7.30;99.90
54124;DHT22;55741;53.252;5.788;2023-03-03T16:02:23;7.20;99.90
54124;DHT22;55741;53.252;5.788;2023-03-03T16:10:49;7.10;99.90
54124;DHT22;55741;53.252;5.788;2023-03-03T16:13:26;7.10;99.90
54124;DHT22;55741;53.252;5.788;2023-03-03T16:18:46;7.00;99.90
54124;DHT22;55741;53.252;5.788;2023-03-03T16:27:36;6.90;99.90
54124;DHT22;55741;53.252;5.788;2023-03-03T16:30:25;6.90;99.90
54124;DHT22;55741;53.252;5.788;2023-03-03T16:33:08;6.90;99.90
54124;DHT22;55741;53.252;5.788;2023-03-03T16:35:43;6.80;99.90
54124;DHT22;55741;53.252;5.788;2023-03-03T16:38:18;6.80;99.90
54124;DHT22;55741;53.252;5.788;2023-03-03T16:40:57;6.80;99.90
54124;DHT22;55741;53.252;5.788;2023-03-03T16:46:00;6.70;99.90
54124;DHT22;55741;53.252;5.788;2023-03-03T16:51:08;6.70;99.90
54124;DHT22;55741;53.252;5.788;2023-03-03T16:59:49;6.70;99.90
54124;DHT22;55741;53.252;5.788;2023-03-03T17:05:27;6.70;99.90
54124;DHT22;55741;53.252;5.788;2023-03-03T17:10:56;6.60;99.90
54124;DHT22;55741;53.252;5.788;2023-03-03T17:25:07;6.60;99.90
54124;DHT22;55741;53.252;5.788;2023-03-03T17:33:33;6.50;99.90
54124;DHT22;55741;53.252;5.788;2023-03-03T17:50:20;6.50;99.90
54124;DHT22;55741;53.252;5.788;2023-03-03T17:52:57;6.50;99.90
54124;DHT22;55741;53.252;5.788;2023-03-03T18:23:41;6.30;99.90
54124;DHT22;55741;53.252;5.788;2023-03-03T18:26:34;6.30;99.90
54124;DHT22;55741;53.252;5.788;2023-03-03T18:34:40;6.30;99.90
54124;DHT22;55741;53.252;5.788;2023-03-03T18:37:38;6.30;99.90
54124;DHT22;55741;53.252;5.788;2023-03-03T18:48:10;6.20;99.90
54124;DHT22;55741;53.252;5.788;2023-03-03T18:50:41;6.20;99.90
54124;DHT22;55741;53.252;5.788;2023-03-03T18:53:16;6.20;99.90
54124;DHT22;55741;53.252;5.788;2023-03-03T18:55:54;6.20;99.90
54124;DHT22;55741;53.252;5.788;2023-03-03T18:58:34;6.20;99.90
54124;DHT22;55741;53.252;5.788;2023-03-03T19:09:43;6.20;99.90
54124;DHT22;55741;53.252;5.788;2023-03-03T19:12:10;6.20;99.90
54124;DHT22;55741;53.252;5.788;2023-03-03T19:14:39;6.20;99.90
54124;DHT22;55741;53.252;5.788;2023-03-03T19:20:12;6.10;99.90
54124;DHT22;55741;53.252;5.788;2023-03-03T19:22:51;6.20;99.90
54124;DHT22;55741;53.252;5.788;2023-03-03T19:30:51;6.10;99.90
54124;DHT22;55741;53.252;5.788;2023-03-03T19:33:52;6.20;99.90
54124;DHT22;55741;53.252;5.788;2023-03-03T19:42:27;6.10;99.90
54124;DHT22;55741;53.252;5.788;2023-03-03T19:47:50;6.20;99.90
54124;DHT22;55741;53.252;5.788;2023-03-03T19:56:20;6.20;99.90
54124;DHT22;55741;53.252;5.788;2023-03-03T20:02:01;6.20;99.90
54124;DHT22;55741;53.252;5.788;2023-03-03T20:07:40;6.20;99.90
54124;DHT22;55741;53.252;5.788;2023-03-03T20:15:18;6.20;99.90
54124;DHT22;55741;53.252;5.788;2023-03-03T20:17:53;6.10;99.90
54124;DHT22;55741;53.252;5.788;2023-03-03T20:20:47;6.20;99.90
54124;DHT22;55741;53.252;5.788;2023-03-03T20:26:07;6.20;99.90
54124;DHT22;55741;53.252;5.788;2023-03-03T20:31:44;6.10;99.90
54124;DHT22;55741;53.252;5.788;2023-03-03T20:34:51;6.20;99.90
54124;DHT22;55741;53.252;5.788;2023-03-03T20:42:53;6.10;99.90
54124;DHT22;55741;53.252;5.788;2023-03-03T20:51:14;6.10;99.90
54124;DHT22;55741;53.252;5.788;2023-03-03T20:56:32;6.10;99.90
54124;DHT22;55741;53.252;5.788;2023-03-03T21:01:29;6.10;99.90
54124;DHT22;55741;53.252;5.788;2023-03-03T21:04:24;6.10;99.90
54124;DHT22;55741;53.252;5.788;2023-03-03T21:06:51;6.10;99.90
54124;DHT22;55741;53.252;5.788;2023-03-03T21:09:29;6.10;99.90
54124;DHT22;55741;53.252;5.788;2023-03-03T21:12:00;6.10;99.90
54124;DHT22;55741;53.252;5.788;2023-03-03T21:14:29;6.10;99.90
54124;DHT22;55741;53.252;5.788;2023-03-03T21:16:58;6.10;99.90
54124;DHT22;55741;53.252;5.788;2023-03-03T21:21:54;6.10;99.90
54124;DHT22;55741;53.252;5.788;2023-03-03T21:24:20;6.10;99.90
54124;DHT22;55741;53.252;5.788;2023-03-03T21:26:56;6.10;99.90
54124;DHT22;55741;53.252;5.788;2023-03-03T21:29:25;6.10;99.90
54124;DHT22;55741;53.252;5.788;2023-03-03T21:31:54;6.10;99.90
54124;DHT22;55741;53.252;5.788;2023-03-03T21:36:50;6.10;99.90
54124;DHT22;55741;53.252;5.788;2023-03-03T21:39:36;6.10;99.90
54124;DHT22;55741;53.252;5.788;2023-03-03T21:42:05;6.10;99.90
54124;DHT22;55741;53.252;5.788;2023-03-03T21:44:51;6.10;99.90
54124;DHT22;55741;53.252;5.788;2023-03-03T21:47:26;6.10;99.90
54124;DHT22;55741;53.252;5.788;2023-03-03T21:49:53;6.10;99.90
54124;DHT22;55741;53.252;5.788;2023-03-03T21:52:21;6.10;99.90
54124;DHT22;55741;53.252;5.788;2023-03-03T21:54:50;6.10;99.90
54124;DHT22;55741;53.252;5.788;2023-03-03T21:57:16;6.00;99.90
54124;DHT22;55741;53.252;5.788;2023-03-03T21:59:42;6.00;99.90
54124;DHT22;55741;53.252;5.788;2023-03-03T22:02:09;6.10;99.90
54124;DHT22;55741;53.252;5.788;2023-03-03T22:04:35;6.10;99.90
54124;DHT22;55741;53.252;5.788;2023-03-03T22:07:03;6.00;99.90
54124;DHT22;55741;53.252;5.788;2023-03-03T22:09:29;6.00;99.90
54124;DHT22;55741;53.252;5.788;2023-03-03T22:11:55;6.00;99.90
54124;DHT22;55741;53.252;5.788;2023-03-03T22:14:20;6.00;99.90
54124;DHT22;55741;53.252;5.788;2023-03-03T22:16:46;6.00;99.90
54124;DHT22;55741;53.252;5.788;2023-03-03T22:19:12;6.00;99.90
54124;DHT22;55741;53.252;5.788;2023-03-03T22:21:38;6.00;99.90
54124;DHT22;55741;53.252;5.788;2023-03-03T22:24:05;6.00;99.90
54124;DHT22;55741;53.252;5.788;2023-03-03T22:26:32;6.00;99.90
54124;DHT22;55741;53.252;5.788;2023-03-03T22:28:57;6.00;99.90
54124;DHT22;55741;53.252;5.788;2023-03-03T22:31:36;6.00;99.90
54124;DHT22;55741;53.252;5.788;2023-03-03T22:34:02;6.00;99.90
54124;DHT22;55741;53.252;5.788;2023-03-03T22:36:29;6.00;99.90
54124;DHT22;55741;53.252;5.788;2023-03-03T22:38:55;6.00;99.90
54124;DHT22;55741;53.252;5.788;2023-03-03T22:41:21;6.00;99.90
54124;DHT22;55741;53.252;5.788;2023-03-03T22:43:46;6.00;99.90
54124;DHT22;55741;53.252;5.788;2023-03-03T22:46:12;6.00;99.90
54124;DHT22;55741;53.252;5.788;2023-03-03T22:48:38;6.00;99.90
54124;DHT22;55741;53.252;5.788;2023-03-03T22:51:05;6.00;99.90
54124;DHT22;55741;53.252;5.788;2023-03-03T22:53:31;6.00;99.90
54124;DHT22;55741;53.252;5.788;2023-03-03T22:55:58;6.00;99.90
54124;DHT22;55741;53.252;5.788;2023-03-03T22:58:24;6.00;99.90